Dades meteomassalio
Diari Summary for Marc 31, 2017 Units:  Metric    English   Both
« Previous Day
Next Day »
Diari Semanal Mensual Anual Personalitzat
  Maxima: Minima: Mijana:
Temperatura: 22.3 °C 6.6 °C 13.4 °C
Rosada: 12.6 °C 3.2 °C 7.5 °C
Humitat: 91 % 41 % 69 %
Velocitat del vent: 40.7 km/h 0.0 km/h 4.5 km/h
Racha vent: 40.7 km/h - -
Vent:- - ESE
Pressio: 1022.2 hPa 1015.5 hPa -
Pluja: 11.2 mm    
Historical Graphs
 
 
Tabular Data for Marc 31, 2017
Time Temperature Dew Point Pressure Wind Wind Speed Wind Gust Humidity Rainfall Rate (Hourly) solar Conditions
00:04 14.6 °C 3.9 °C 1022.2 hPa Calm     49 % 0.0 mm 0.0 W/m2 CLR
00:09 14.4 °C 3.8 °C 1022.2 hPa Calm     49 % 0.0 mm 0.0 W/m2 CLR
00:14 14.4 °C 3.5 °C 1022.2 hPa Calm     48 % 0.0 mm 0.0 W/m2 CLR
00:19 14.2 °C 4.2 °C 1022.2 hPa Calm     51 % 0.0 mm 0.0 W/m2 CLR
00:24 13.8 °C 3.8 °C 1022.2 hPa Calm     51 % 0.0 mm 0.0 W/m2 CLR
00:29 13.7 °C 3.7 °C 1022.2 hPa Calm     51 % 0.0 mm 0.0 W/m2 CLR
00:34 13.7 °C 3.5 °C 1022.2 hPa Calm     50 % 0.0 mm 0.0 W/m2 CLR
00:39 13.6 °C 4.2 °C 1022.2 hPa Calm     53 % 0.0 mm 0.0 W/m2 CLR
00:44 13.2 °C 4.1 °C 1022.2 hPa Calm     54 % 0.0 mm 0.0 W/m2 CLR
00:49 12.9 °C 4.1 °C 1022.2 hPa Calm     55 % 0.0 mm 0.0 W/m2 CLR
00:54 12.7 °C 3.6 °C 1022.2 hPa Calm     54 % 0.0 mm 0.0 W/m2 CLR
00:59 12.7 °C 3.3 °C 1022.2 hPa Calm     53 % 0.0 mm 0.0 W/m2 CLR
01:04 12.9 °C 3.3 °C 1022.2 hPa Calm     52 % 0.0 mm 0.0 W/m2 CLR
01:09 12.8 °C 3.7 °C 1022.2 hPa Calm     54 % 0.0 mm 0.0 W/m2 CLR
01:14 12.7 °C 3.7 °C 1022.2 hPa Calm     54 % 0.0 mm 0.0 W/m2 CLR
01:19 12.5 °C 3.7 °C 1022.2 hPa Calm     55 % 0.0 mm 0.0 W/m2 CLR
01:24 12.6 °C 4.0 °C 1022.2 hPa Calm     56 % 0.0 mm 0.0 W/m2 CLR
01:29 12.6 °C 4.1 °C 1022.2 hPa Calm     56 % 0.0 mm 0.0 W/m2 CLR
01:34 12.3 °C 3.8 °C 1022.2 hPa Calm     56 % 0.0 mm 0.0 W/m2 CLR
01:39 11.8 °C 3.8 °C 1022.2 hPa Calm     58 % 0.0 mm 0.0 W/m2 CLR
01:44 11.7 °C 3.2 °C 1022.2 hPa Calm     56 % 0.0 mm 0.0 W/m2 CLR
01:49 12.1 °C 3.8 °C 1022.2 hPa Calm     57 % 0.0 mm 0.0 W/m2 CLR
01:54 11.8 °C 4.1 °C 1022.2 hPa Calm     59 % 0.0 mm 0.0 W/m2 CLR
01:59 11.4 °C 4.1 °C 1021.9 hPa Calm     61 % 0.0 mm 0.0 W/m2 CLR
02:04 11.0 °C 4.2 °C 1021.9 hPa Calm     63 % 0.0 mm 0.0 W/m2 CLR
02:09 10.7 °C 3.9 °C 1021.9 hPa Calm     63 % 0.0 mm 0.0 W/m2 CLR
02:14 10.6 °C 4.3 °C 1021.9 hPa Calm     65 % 0.0 mm 0.0 W/m2 CLR
02:19 10.1 °C 4.3 °C 1021.9 hPa Calm     67 % 0.0 mm 0.0 W/m2 CLR
02:24 9.9 °C 4.3 °C 1021.9 hPa Calm     68 % 0.0 mm 0.0 W/m2 CLR
02:29 9.8 °C 4.3 °C 1021.9 hPa Calm     69 % 0.0 mm 0.0 W/m2 CLR
02:34 9.7 °C 4.4 °C 1021.9 hPa Calm     70 % 0.0 mm 0.0 W/m2 CLR
02:39 9.5 °C 4.5 °C 1021.9 hPa Calm     71 % 0.0 mm 0.0 W/m2 CLR
02:44 9.4 °C 4.2 °C 1021.9 hPa Calm     70 % 0.0 mm 0.0 W/m2 CLR
02:49 9.4 °C 4.0 °C 1021.6 hPa Calm     69 % 0.0 mm 0.0 W/m2 CLR
02:54 9.4 °C 4.1 °C 1021.9 hPa Calm     69 % 0.0 mm 0.0 W/m2 CLR
02:59 9.4 °C 4.1 °C 1021.9 hPa Calm     69 % 0.0 mm 0.0 W/m2 CLR
03:04 9.4 °C 4.2 °C 1021.9 hPa Calm     70 % 0.0 mm 0.0 W/m2 CLR
03:09 9.4 °C 4.4 °C 1021.9 hPa Calm     71 % 0.0 mm 0.0 W/m2 CLR
03:14 9.3 °C 4.1 °C 1021.9 hPa Calm     70 % 0.0 mm 0.0 W/m2 CLR
03:19 9.3 °C 4.3 °C 1021.9 hPa Calm     71 % 0.0 mm 0.0 W/m2 CLR
03:24 9.3 °C 4.3 °C 1021.9 hPa Calm     71 % 0.0 mm 0.0 W/m2 CLR
03:25 9.3 °C 4.6 °C 1021.9 hPa Calm     72 % 0.0 mm 0.0 W/m2 CLR
03:30 9.3 °C 4.3 °C 1021.9 hPa Calm     71 % 0.0 mm 0.0 W/m2 CLR
03:35 9.2 °C 4.1 °C 1021.9 hPa Calm     70 % 0.0 mm 0.0 W/m2 CLR
03:40 9.1 °C 4.5 °C 1021.9 hPa Calm     73 % 0.0 mm 0.0 W/m2 CLR
03:45 9.0 °C 4.4 °C 1021.9 hPa Calm     73 % 0.0 mm 0.0 W/m2 CLR
03:50 8.9 °C 4.2 °C 1021.9 hPa Calm     72 % 0.0 mm 0.0 W/m2 CLR
03:55 8.9 °C 4.4 °C 1021.9 hPa Calm     73 % 0.0 mm 0.0 W/m2 CLR
04:00 8.8 °C 4.7 °C 1021.9 hPa Calm     75 % 0.0 mm 0.0 W/m2 CLR
04:05 8.8 °C 4.4 °C 1021.6 hPa Calm     74 % 0.0 mm 0.0 W/m2 CLR
04:10 8.7 °C 4.6 °C 1021.6 hPa Calm     75 % 0.0 mm 0.0 W/m2 CLR
04:15 8.7 °C 4.7 °C 1021.6 hPa Calm     76 % 0.0 mm 0.0 W/m2 CLR
04:20 8.6 °C 4.8 °C 1021.6 hPa Calm     77 % 0.0 mm 0.0 W/m2 CLR
04:25 8.5 °C 4.7 °C 1021.6 hPa Calm     77 % 0.0 mm 0.0 W/m2 CLR
04:30 8.4 °C 4.7 °C 1021.6 hPa Calm     77 % 0.0 mm 0.0 W/m2 CLR
04:35 8.4 °C 4.7 °C 1021.6 hPa Calm     77 % 0.0 mm 0.0 W/m2 CLR
04:40 8.4 °C 4.6 °C 1021.6 hPa Calm     77 % 0.0 mm 0.0 W/m2 CLR
04:45 8.3 °C 4.7 °C 1021.6 hPa Calm     78 % 0.0 mm 0.0 W/m2 CLR
04:50 8.2 °C 4.6 °C 1021.6 hPa Calm     78 % 0.0 mm 0.0 W/m2 CLR
04:55 8.2 °C 4.4 °C 1021.6 hPa Calm     77 % 0.0 mm 0.0 W/m2 CLR
05:00 8.3 °C 4.7 °C 1021.6 hPa Calm     78 % 0.0 mm 0.0 W/m2 CLR
05:05 8.2 °C 4.6 °C 1021.2 hPa Calm     78 % 0.0 mm 0.0 W/m2 CLR
05:10 8.1 °C 4.5 °C 1021.2 hPa Calm     78 % 0.0 mm 0.0 W/m2 CLR
05:15 7.9 °C 4.3 °C 1021.6 hPa Calm     78 % 0.0 mm 0.0 W/m2 CLR
05:20 7.9 °C 4.3 °C 1021.6 hPa Calm     78 % 0.0 mm 0.0 W/m2 CLR
05:25 8.0 °C 4.4 °C 1021.6 hPa SSW 3.7 km/h   78 % 0.0 mm 0.0 W/m2 CLR
05:30 8.1 °C 4.3 °C 1021.6 hPa Calm     77 % 0.0 mm 0.0 W/m2 CLR
05:35 8.1 °C 4.3 °C 1021.6 hPa Calm     77 % 0.0 mm 0.0 W/m2 CLR
05:40 8.1 °C 4.3 °C 1021.6 hPa Calm     77 % 0.0 mm 0.0 W/m2 CLR
05:45 8.0 °C 4.2 °C 1021.6 hPa Calm     77 % 0.0 mm 0.0 W/m2 CLR
05:50 7.8 °C 4.2 °C 1021.6 hPa Calm     78 % 0.0 mm 0.0 W/m2 CLR
05:55 7.7 °C 4.3 °C 1021.6 hPa Calm     79 % 0.0 mm 0.0 W/m2 CLR
06:00 7.6 °C 4.2 °C 1021.6 hPa Calm     79 % 0.0 mm 0.0 W/m2 CLR
06:05 7.6 °C 4.2 °C 1021.6 hPa Calm     79 % 0.0 mm 0.0 W/m2 CLR
06:10 7.6 °C 4.2 °C 1021.6 hPa Calm     79 % 0.0 mm 0.0 W/m2 CLR
06:15 7.5 °C 4.1 °C 1021.6 hPa Calm     79 % 0.0 mm 0.0 W/m2 CLR
06:20 7.4 °C 4.0 °C 1021.6 hPa Calm     79 % 0.0 mm 0.0 W/m2 CLR
06:25 7.3 °C 4.1 °C 1021.6 hPa Calm     80 % 0.0 mm 0.0 W/m2 CLR
06:30 7.2 °C 4.0 °C 1021.6 hPa Calm     80 % 0.0 mm 0.0 W/m2 CLR
06:35 7.2 °C 3.9 °C 1021.6 hPa Calm     80 % 0.0 mm 0.0 W/m2 CLR
06:40 7.3 °C 4.1 °C 1021.6 hPa Calm     80 % 0.0 mm 0.0 W/m2 CLR
06:45 7.2 °C 4.0 °C 1021.6 hPa Calm     80 % 0.0 mm 0.0 W/m2 CLR
06:50 7.1 °C 3.9 °C 1021.6 hPa Calm     80 % 0.0 mm 0.0 W/m2 CLR
06:55 7.0 °C 3.9 °C 1021.6 hPa Calm     81 % 0.0 mm 0.0 W/m2 CLR
07:00 6.9 °C 3.9 °C 1021.2 hPa Calm     81 % 0.0 mm 0.0 W/m2 CLR
07:05 6.9 °C 3.8 °C 1021.6 hPa Calm     81 % 0.0 mm 0.0 W/m2 CLR
07:10 6.9 °C 3.9 °C 1021.2 hPa Calm     81 % 0.0 mm 0.0 W/m2 CLR
07:15 7.0 °C 3.9 °C 1021.6 hPa Calm     81 % 0.0 mm 0.0 W/m2 CLR
07:20 7.0 °C 3.9 °C 1021.2 hPa Calm     81 % 0.0 mm 0.0 W/m2 CLR
07:25 7.0 °C 3.9 °C 1021.2 hPa Calm     81 % 0.0 mm 0.0 W/m2 CLR
07:30 6.9 °C 3.8 °C 1021.2 hPa Calm     81 % 0.0 mm 0.0 W/m2 CLR
07:35 6.9 °C 3.8 °C 1021.2 hPa Calm     81 % 0.0 mm 0.0 W/m2 OVC
07:40 6.9 °C 3.8 °C 1021.2 hPa Calm     81 % 0.0 mm 0.0 W/m2 OVC
07:45 6.9 °C 4.0 °C 1021.6 hPa Calm     82 % 0.0 mm 0.0 W/m2 OVC
07:50 6.8 °C 4.0 °C 1021.6 hPa Calm     82 % 0.0 mm 5.0 W/m2 OVC
07:55 6.7 °C 3.9 °C 1021.6 hPa Calm     82 % 0.0 mm 9.0 W/m2 BKN
08:01 6.7 °C 4.0 °C 1021.6 hPa Calm     83 % 0.0 mm 12.0 W/m2 BKN
08:06 6.6 °C 3.9 °C 1021.6 hPa Calm     83 % 0.0 mm 18.0 W/m2 BKN
08:11 6.6 °C 3.9 °C 1021.6 hPa Calm     83 % 0.0 mm 21.0 W/m2 BKN
08:16 6.6 °C 3.9 °C 1021.6 hPa Calm     83 % 0.0 mm 26.0 W/m2 BKN
08:21 6.7 °C 4.1 °C 1021.6 hPa Calm     83 % 0.0 mm 32.0 W/m2 BKN
08:26 6.8 °C 4.2 °C 1021.9 hPa Calm     83 % 0.0 mm 37.0 W/m2 BKN
08:31 6.9 °C 4.2 °C 1021.6 hPa Calm     83 % 0.0 mm 44.0 W/m2 BKN
08:36 7.0 °C 4.3 °C 1021.6 hPa Calm     83 % 0.0 mm 51.0 W/m2 SCT
08:41 7.1 °C 4.4 °C 1021.9 hPa Calm     83 % 0.0 mm 56.0 W/m2 SCT
08:46 7.2 °C 4.4 °C 1021.9 hPa Calm     83 % 0.0 mm 62.0 W/m2 SCT
08:51 7.3 °C 4.6 °C 1021.9 hPa Calm     83 % 0.0 mm 67.0 W/m2 SCT
08:56 7.3 °C 4.6 °C 1021.9 hPa Calm     83 % 0.0 mm 70.0 W/m2 FEW
08:57 7.3 °C 4.6 °C 1021.9 hPa Calm     83 % 0.0 mm 72.0 W/m2 FEW
09:02 7.4 °C 4.7 °C 1021.9 hPa Calm     83 % 0.0 mm 76.0 W/m2 FEW
09:07 7.5 °C 4.8 °C 1021.9 hPa Calm     83 % 0.0 mm 100.0 W/m2 FEW
09:12 7.6 °C 4.9 °C 1021.9 hPa Calm     83 % 0.0 mm 105.0 W/m2 CLR
09:17 7.8 °C 5.1 °C 1021.9 hPa Calm     83 % 0.0 mm 216.0 W/m2 CLR
09:22 8.2 °C 5.4 °C 1021.9 hPa Calm     83 % 0.0 mm 236.0 W/m2 CLR
09:27 8.6 °C 5.7 °C 1021.9 hPa Calm     82 % 0.0 mm 257.0 W/m2 CLR
09:32 9.1 °C 5.8 °C 1021.9 hPa Calm     80 % 0.0 mm 357.0 W/m2 CLR
09:37 9.7 °C 6.2 °C 1021.9 hPa Calm     79 % 0.0 mm 330.0 W/m2 CLR
09:42 10.0 °C 5.9 °C 1021.9 hPa Calm     76 % 0.0 mm 200.0 W/m2 CLR
09:47 10.3 °C 5.9 °C 1021.9 hPa Calm     74 % 0.0 mm 188.0 W/m2 CLR
09:52 10.6 °C 6.1 °C 1021.9 hPa Calm     74 % 0.0 mm 190.0 W/m2 CLR
09:57 10.7 °C 6.0 °C 1021.9 hPa Calm     73 % 0.0 mm 193.0 W/m2 CLR
10:02 10.8 °C 5.8 °C 1021.9 hPa Calm     71 % 0.0 mm 174.0 W/m2 CLR
10:07 10.9 °C 5.7 °C 1021.9 hPa Calm     70 % 0.0 mm 153.0 W/m2 CLR
10:12 11.1 °C 5.8 °C 1021.9 hPa Calm     70 % 0.0 mm 146.0 W/m2 CLR
10:17 11.3 °C 6.0 °C 1021.9 hPa Calm     70 % 0.0 mm 146.0 W/m2 CLR
10:22 11.4 °C 5.9 °C 1021.9 hPa Calm     69 % 0.0 mm 156.0 W/m2 CLR
10:27 11.6 °C 6.1 °C 1021.9 hPa Calm     69 % 0.0 mm 183.0 W/m2 CLR
10:32 11.9 °C 6.2 °C 1021.9 hPa Calm     68 % 0.0 mm 206.0 W/m2 CLR
10:37 12.1 °C 6.6 °C 1021.9 hPa Calm     69 % 0.0 mm 211.0 W/m2 CLR
10:42 12.3 °C 6.4 °C 1021.9 hPa Calm     67 % 0.0 mm 193.0 W/m2 CLR
10:47 12.6 °C 6.4 °C 1021.9 hPa Calm     66 % 0.0 mm 190.0 W/m2 CLR
10:52 12.8 °C 6.3 °C 1021.9 hPa Calm     65 % 0.0 mm 193.0 W/m2 CLR
10:57 12.8 °C 5.9 °C 1021.9 hPa Calm     63 % 0.0 mm 276.0 W/m2 CLR
11:02 13.0 °C 5.9 °C 1021.9 hPa Calm     62 % 0.0 mm 343.0 W/m2 CLR
11:07 13.2 °C 6.3 °C 1021.9 hPa Calm     63 % 0.0 mm 325.0 W/m2 CLR
11:12 13.7 °C 6.7 °C 1021.9 hPa Calm     63 % 0.0 mm 589.0 W/m2 CLR
11:17 14.2 °C 6.6 °C 1021.6 hPa Calm     60 % 0.0 mm 575.0 W/m2 CLR
11:22 14.6 °C 7.2 °C 1021.6 hPa Calm     61 % 0.0 mm 587.0 W/m2 CLR
11:28 14.9 °C 7.7 °C 1021.6 hPa Calm     62 % 0.0 mm 599.0 W/m2 CLR
11:33 15.3 °C 7.8 °C 1021.2 hPa Calm     61 % 0.0 mm 605.0 W/m2 CLR
11:38 15.7 °C 8.0 °C 1021.2 hPa Calm     60 % 0.0 mm 654.0 W/m2 CLR
11:43 16.1 °C 8.1 °C 1020.9 hPa Calm     59 % 0.0 mm 589.0 W/m2 CLR
11:48 16.3 °C 7.8 °C 1020.9 hPa Calm     57 % 0.0 mm 399.0 W/m2 CLR
11:53 16.6 °C 8.0 °C 1020.5 hPa Calm     57 % 0.0 mm 533.0 W/m2 CLR
11:58 16.9 °C 8.1 °C 1020.5 hPa Calm     56 % 0.0 mm 717.0 W/m2 CLR
12:03 17.4 °C 8.3 °C 1020.5 hPa Calm     55 % 0.0 mm 571.0 W/m2 CLR
12:08 17.8 °C 8.1 °C 1020.5 hPa ENE 9.3 km/h 9.3 km/h 53 % 0.0 mm 635.0 W/m2 CLR
12:13 18.1 °C 7.8 °C 1020.5 hPa ESE 9.3 km/h 9.3 km/h 51 % 0.0 mm 705.0 W/m2 CLR
12:18 18.2 °C 7.9 °C 1020.2 hPa Calm     51 % 0.0 mm 766.0 W/m2 CLR
12:23 18.4 °C 8.1 °C 1020.2 hPa East 5.6 km/h 5.6 km/h 51 % 0.0 mm 529.0 W/m2 CLR
12:28 18.4 °C 7.8 °C 1020.2 hPa East 3.2 km/h 3.2 km/h 50 % 0.0 mm 422.0 W/m2 CLR
12:33 18.4 °C 8.1 °C 1020.2 hPa Calm     51 % 0.0 mm 359.0 W/m2 CLR
12:38 18.7 °C 8.1 °C 1020.2 hPa Calm     50 % 0.0 mm 522.0 W/m2 CLR
12:43 19.0 °C 8.6 °C 1019.9 hPa ENE 5.6 km/h 5.6 km/h 51 % 0.0 mm 826.0 W/m2 CLR
12:48 19.3 °C 8.0 °C 1019.9 hPa SE 3.7 km/h 3.7 km/h 48 % 0.0 mm 738.0 W/m2 CLR
12:53 19.5 °C 8.2 °C 1019.9 hPa ESE 7.4 km/h 7.4 km/h 48 % 0.0 mm 689.0 W/m2 CLR
12:58 19.8 °C 8.8 °C 1019.5 hPa ENE 13.0 km/h 13.0 km/h 49 % 0.0 mm 835.0 W/m2 CLR
13:03 20.2 °C 8.5 °C 1019.5 hPa NE 11.1 km/h 11.1 km/h 47 % 0.0 mm 821.0 W/m2 CLR
13:08 20.3 °C 7.7 °C 1019.5 hPa ESE 11.1 km/h 11.1 km/h 44 % 0.0 mm 854.0 W/m2 CLR
13:13 20.6 °C 8.6 °C 1019.2 hPa ENE 14.8 km/h 14.8 km/h 46 % 0.0 mm 814.0 W/m2 CLR
13:18 20.8 °C 8.7 °C 1019.2 hPa NE 11.1 km/h 11.1 km/h 46 % 0.0 mm 670.0 W/m2 CLR
13:23 21.1 °C 8.7 °C 1018.8 hPa ENE 14.8 km/h 14.8 km/h 45 % 0.0 mm 786.0 W/m2 CLR
13:28 21.3 °C 8.5 °C 1018.8 hPa ENE 5.6 km/h 5.6 km/h 44 % 0.0 mm 814.0 W/m2 CLR
13:33 21.5 °C 8.7 °C 1018.8 hPa ENE 13.0 km/h 13.0 km/h 44 % 0.0 mm 816.0 W/m2 CLR
13:38 21.7 °C 8.2 °C 1018.8 hPa Calm     42 % 0.0 mm 814.0 W/m2 CLR
13:43 21.7 °C 8.6 °C 1018.8 hPa ESE 9.3 km/h 9.3 km/h 43 % 0.0 mm 814.0 W/m2 CLR
13:48 21.8 °C 8.7 °C 1018.5 hPa NE 7.4 km/h 7.4 km/h 43 % 0.0 mm 814.0 W/m2 CLR
13:53 22.0 °C 9.2 °C 1018.5 hPa ENE 11.1 km/h 11.1 km/h 44 % 0.0 mm 823.0 W/m2 CLR
13:58 22.1 °C 8.9 °C 1018.5 hPa NNE 5.6 km/h 5.6 km/h 43 % 0.0 mm 816.0 W/m2 CLR
14:03 22.2 °C 8.7 °C 1018.5 hPa ENE 11.1 km/h 11.1 km/h 42 % 0.0 mm 824.0 W/m2 CLR
14:08 22.3 °C 8.4 °C 1018.2 hPa ENE 9.7 km/h 9.7 km/h 41 % 0.0 mm 882.0 W/m2 CLR
14:13 22.0 °C 8.5 °C 1018.2 hPa NE 14.8 km/h 14.8 km/h 42 % 0.0 mm 858.0 W/m2 CLR
14:18 22.1 °C 8.9 °C 1017.8 hPa NE 14.5 km/h 14.5 km/h 43 % 0.0 mm 809.0 W/m2 CLR
14:23 22.2 °C 8.7 °C 1017.8 hPa NE 17.7 km/h 17.7 km/h 42 % 0.0 mm 803.0 W/m2 CLR
14:28 22.2 °C 9.1 °C 1017.8 hPa NE 12.9 km/h 12.9 km/h 43 % 0.0 mm 814.0 W/m2 CLR
14:33 22.2 °C 9.0 °C 1017.5 hPa ENE 11.1 km/h 11.1 km/h 43 % 0.0 mm 838.0 W/m2 CLR
14:38 22.2 °C 9.0 °C 1017.5 hPa NE 18.5 km/h 18.5 km/h 43 % 0.0 mm 816.0 W/m2 CLR
14:43 22.2 °C 8.7 °C 1017.5 hPa ENE 16.7 km/h 16.7 km/h 42 % 0.0 mm 735.0 W/m2 CLR
14:48 22.2 °C 8.7 °C 1017.5 hPa NE 16.7 km/h 16.7 km/h 42 % 0.0 mm 202.0 W/m2 CLR
14:53 21.8 °C 8.7 °C 1017.5 hPa NNE 9.7 km/h 9.7 km/h 43 % 0.0 mm 605.0 W/m2 CLR
14:58 21.8 °C 9.1 °C 1017.5 hPa NNE 3.7 km/h   44 % 0.0 mm 262.0 W/m2 CLR
15:03 21.8 °C 8.7 °C 1017.5 hPa East 8.0 km/h 8.0 km/h 43 % 0.0 mm 269.0 W/m2 CLR
15:08 21.4 °C 9.3 °C 1017.2 hPa ESE 13.0 km/h 13.0 km/h 46 % 0.0 mm 220.0 W/m2 CLR
15:13 21.2 °C 9.4 °C 1017.2 hPa ESE 18.5 km/h 18.5 km/h 47 % 0.0 mm 543.0 W/m2 CLR
15:18 21.2 °C 9.4 °C 1017.2 hPa East 11.1 km/h 11.1 km/h 47 % 0.0 mm 664.0 W/m2 CLR
15:23 20.9 °C 9.8 °C 1016.8 hPa ENE 18.5 km/h 18.5 km/h 49 % 0.0 mm 320.0 W/m2 CLR
15:28 20.9 °C 9.8 °C 1016.8 hPa ESE 18.5 km/h 18.5 km/h 49 % 0.0 mm 267.0 W/m2 CLR
15:33 21.2 °C 10.0 °C 1016.5 hPa East 18.5 km/h 18.5 km/h 49 % 0.0 mm 812.0 W/m2 CLR
15:38 21.2 °C 8.8 °C 1016.1 hPa ESE 13.0 km/h 13.0 km/h 45 % 0.0 mm 821.0 W/m2 CLR
15:43 21.4 °C 9.3 °C 1016.1 hPa ENE 9.3 km/h 9.3 km/h 46 % 0.0 mm 874.0 W/m2 CLR
15:48 21.8 °C 9.9 °C 1015.8 hPa East 8.0 km/h 8.0 km/h 47 % 0.0 mm 267.0 W/m2 CLR
15:53 22.1 °C 9.6 °C 1015.8 hPa ESE 11.1 km/h 11.1 km/h 45 % 0.0 mm 429.0 W/m2 CLR
15:58 22.0 °C 9.5 °C 1015.8 hPa ENE 13.0 km/h 13.0 km/h 45 % 0.0 mm 309.0 W/m2 CLR
16:03 21.6 °C 9.4 °C 1015.5 hPa NNE 16.7 km/h 16.7 km/h 46 % 0.0 mm 130.0 W/m2 CLR
16:08 21.3 °C 9.5 °C 1015.8 hPa ENE 13.0 km/h 13.0 km/h 47 % 0.0 mm 81.0 W/m2 CLR
16:13 21.0 °C 9.6 °C 1015.8 hPa NE 13.0 km/h 13.0 km/h 48 % 0.0 mm 47.0 W/m2 FEW
16:18 20.8 °C 10.0 °C 1015.8 hPa NNE 11.3 km/h 11.3 km/h 50 % 0.0 mm 16.0 W/m2 SCT
16:23 20.3 °C 9.8 °C 1016.1 hPa North 31.5 km/h 31.5 km/h 51 % 0.0 mm 9.0 W/m2 BKN
16:28 19.6 °C 10.1 °C 1016.5 hPa NNE 40.7 km/h 40.7 km/h 54 % 0.0 mm 7.0 W/m2 BKN
16:34 19.2 °C 9.4 °C 1016.8 hPa ENE 32.2 km/h 32.2 km/h 53 % 0.0 mm 14.0 W/m2 BKN
16:39 17.9 °C 10.8 °C 1016.8 hPa ENE 29.0 km/h 29.3 km/h 63 % 2.0 mm 56.0 W/m2 RA
16:44 15.3 °C 10.1 °C 1015.5 hPa ENE 35.2 km/h 35.2 km/h 71 % 8.4 mm 98.0 W/m2 RA
16:49 14.7 °C 11.1 °C 1016.1 hPa NE 31.5 km/h 31.5 km/h 79 % 8.6 mm 113.0 W/m2 RA
16:54 15.1 °C 11.4 °C 1016.5 hPa NE 29.6 km/h 29.6 km/h 79 % 8.6 mm 258.0 W/m2 CLR
16:59 15.6 °C 12.0 °C 1016.5 hPa ENE 9.7 km/h 9.7 km/h 79 % 8.6 mm 506.0 W/m2 CLR
17:00 15.9 °C 11.8 °C 1016.5 hPa East 22.2 km/h 22.2 km/h 77 % 8.6 mm 489.0 W/m2 CLR
17:05 16.6 °C 12.1 °C 1016.1 hPa East 5.6 km/h 5.6 km/h 75 % 8.6 mm 216.0 W/m2 CLR
17:10 16.7 °C 12.2 °C 1016.5 hPa Calm     75 % 8.6 mm 162.0 W/m2 CLR
17:15 16.7 °C 11.8 °C 1016.5 hPa Calm     73 % 8.6 mm 120.0 W/m2 CLR
17:20 16.6 °C 12.2 °C 1016.1 hPa Calm     75 % 8.6 mm 86.0 W/m2 CLR
17:21 16.6 °C 12.2 °C 1016.1 hPa Calm     75 % 8.6 mm 76.0 W/m2 CLR
17:26 16.5 °C 11.8 °C 1016.5 hPa Calm     74 % 8.6 mm 40.0 W/m2 FEW
17:31 16.3 °C 11.6 °C 1016.5 hPa ENE 9.3 km/h 9.3 km/h 74 % 8.6 mm 39.0 W/m2 SCT
17:36 16.1 °C 11.8 °C 1016.1 hPa South 24.1 km/h 24.1 km/h 76 % 8.1 mm 63.0 W/m2 BKN
17:41 16.0 °C 11.9 °C 1016.5 hPa SSE 27.4 km/h 27.4 km/h 77 % 0.5 mm 113.0 W/m2 SCT
17:46 16.1 °C 12.0 °C 1016.1 hPa SE 38.9 km/h 38.9 km/h 77 % 0.0 mm 130.0 W/m2 CLR
17:51 15.9 °C 12.2 °C 1015.5 hPa SSW 35.2 km/h 35.2 km/h 79 % 0.0 mm 156.0 W/m2 CLR
17:56 15.8 °C 12.0 °C 1015.8 hPa SSE 31.5 km/h 31.5 km/h 78 % 0.0 mm 188.0 W/m2 CLR
18:01 16.0 °C 12.3 °C 1016.1 hPa South 22.2 km/h 22.2 km/h 79 % 0.0 mm 272.0 W/m2 CLR
18:06 16.0 °C 12.3 °C 1015.5 hPa SSE 31.5 km/h 31.5 km/h 79 % 0.0 mm 425.0 W/m2 CLR
18:11 16.3 °C 12.1 °C 1015.5 hPa SE 37.0 km/h 37.0 km/h 76 % 0.0 mm 388.0 W/m2 CLR
18:16 16.3 °C 12.3 °C 1015.5 hPa ESE 11.1 km/h 11.1 km/h 77 % 0.0 mm 355.0 W/m2 CLR
18:21 16.5 °C 12.4 °C 1015.8 hPa SSE 11.1 km/h 11.1 km/h 77 % 0.0 mm 332.0 W/m2 CLR
18:26 16.7 °C 12.2 °C 1015.8 hPa Calm     75 % 0.0 mm 44.0 W/m2 SCT
18:31 16.7 °C 12.3 °C 1015.8 hPa South 9.3 km/h 9.3 km/h 75 % 0.0 mm 39.0 W/m2 BKN
18:36 16.6 °C 12.1 °C 1016.1 hPa Calm     75 % 0.0 mm 30.0 W/m2 OVC
18:41 16.4 °C 12.2 °C 1016.8 hPa SW 12.9 km/h 12.9 km/h 76 % 0.0 mm 14.0 W/m2 OVC
18:46 16.3 °C 12.3 °C 1016.8 hPa SSW 11.1 km/h 11.1 km/h 77 % 0.0 mm 11.0 W/m2 OVC
18:51 16.3 °C 12.3 °C 1016.8 hPa West 20.4 km/h 20.4 km/h 77 % 0.0 mm 14.0 W/m2 OVC
18:56 16.3 °C 12.5 °C 1016.5 hPa Calm     78 % 0.0 mm 25.0 W/m2 OVC
19:01 16.3 °C 12.3 °C 1016.1 hPa Calm     77 % 0.0 mm 25.0 W/m2 OVC
19:06 16.3 °C 12.5 °C 1015.8 hPa SE 4.8 km/h 4.8 km/h 78 % 0.0 mm 37.0 W/m2 OVC
19:11 16.2 °C 12.5 °C 1016.1 hPa South 5.6 km/h   79 % 0.0 mm 74.0 W/m2 OVC
19:16 16.1 °C 12.6 °C 1015.8 hPa South 9.3 km/h 9.3 km/h 80 % 0.0 mm 79.0 W/m2 OVC
19:21 16.0 °C 11.6 °C 1016.1 hPa South 7.4 km/h 7.4 km/h 75 % 0.0 mm 69.0 W/m2 OVC
19:26 15.9 °C 11.3 °C 1015.8 hPa South 5.6 km/h   74 % 0.0 mm 47.0 W/m2 OVC
19:31 15.8 °C 11.3 °C 1015.8 hPa Calm     75 % 0.0 mm 39.0 W/m2 OVC
19:36 15.4 °C 10.8 °C 1016.1 hPa SW 5.6 km/h 5.6 km/h 74 % 0.0 mm 33.0 W/m2 OVC
19:41 15.3 °C 10.7 °C 1016.1 hPa Calm     74 % 0.0 mm 65.0 W/m2 OVC
19:46 15.3 °C 10.9 °C 1016.5 hPa Calm     75 % 0.0 mm 46.0 W/m2 OVC
19:51 15.2 °C 10.6 °C 1016.5 hPa Calm     74 % 0.0 mm 26.0 W/m2 OVC
19:56 15.1 °C 10.1 °C 1016.5 hPa Calm     72 % 0.0 mm 18.0 W/m2 OVC
20:01 15.1 °C 10.1 °C 1016.5 hPa Calm     72 % 0.0 mm 16.0 W/m2 OVC
20:06 15.0 °C 10.0 °C 1016.5 hPa Calm     72 % 0.0 mm 9.0 W/m2 OVC
20:11 14.9 °C 9.9 °C 1016.5 hPa Calm     72 % 0.0 mm 7.0 W/m2 OVC
20:16 14.8 °C 10.1 °C 1016.1 hPa Calm     73 % 0.0 mm 5.0 W/m2 OVC
20:21 14.7 °C 9.7 °C 1016.5 hPa Calm     72 % 0.0 mm 0.0 W/m2 OVC
20:27 14.6 °C 9.8 °C 1016.5 hPa Calm     73 % 0.0 mm 0.0 W/m2 OVC
20:32 14.6 °C 9.8 °C 1016.5 hPa Calm     73 % 0.0 mm 0.0 W/m2 OVC
20:37 14.5 °C 9.9 °C 1016.5 hPa Calm     74 % 0.0 mm 0.0 W/m2 CLR
20:42 14.4 °C 10.4 °C 1016.5 hPa Calm     77 % 0.0 mm 0.0 W/m2 CLR
20:47 14.2 °C 10.4 °C 1016.5 hPa Calm     78 % 0.0 mm 0.0 W/m2 CLR
20:52 14.1 °C 10.4 °C 1016.5 hPa Calm     79 % 0.0 mm 0.0 W/m2 CLR
20:57 13.9 °C 10.3 °C 1016.5 hPa Calm     79 % 0.0 mm 0.0 W/m2 CLR
21:02 13.8 °C 10.3 °C 1016.8 hPa Calm     79 % 0.0 mm 0.0 W/m2 CLR
21:07 13.7 °C 10.7 °C 1017.2 hPa ENE 1.6 km/h   82 % 0.0 mm 0.0 W/m2 CLR
21:12 13.6 °C 10.7 °C 1016.8 hPa Calm     83 % 0.5 mm 0.0 W/m2 RA
21:17 13.5 °C 10.8 °C 1016.5 hPa Calm     84 % 0.5 mm 0.0 W/m2
21:22 13.4 °C 10.7 °C 1016.5 hPa Calm     84 % 0.5 mm 0.0 W/m2 CLR
21:27 13.2 °C 10.8 °C 1016.8 hPa Calm     85 % 0.5 mm 0.0 W/m2 CLR
21:32 13.2 °C 10.7 °C 1016.8 hPa Calm     85 % 0.5 mm 0.0 W/m2 CLR
21:37 13.1 °C 10.7 °C 1016.8 hPa Calm     85 % 0.5 mm 0.0 W/m2 CLR
21:42 12.9 °C 10.7 °C 1017.2 hPa Calm     86 % 0.5 mm 0.0 W/m2 CLR
21:47 12.9 °C 10.6 °C 1016.8 hPa Calm     86 % 0.5 mm 0.0 W/m2 CLR
21:52 12.8 °C 10.6 °C 1016.8 hPa Calm     86 % 0.5 mm 0.0 W/m2 RA
21:57 12.8 °C 10.6 °C 1017.2 hPa Calm     86 % 0.5 mm 0.0 W/m2 CLR
22:02 12.8 °C 10.7 °C 1017.2 hPa Calm     87 % 0.5 mm 0.0 W/m2 CLR
22:07 12.7 °C 10.6 °C 1017.2 hPa Calm     87 % 0.5 mm 0.0 W/m2 CLR
22:12 12.7 °C 10.7 °C 1016.8 hPa Calm     88 % 0.3 mm 0.0 W/m2 CLR
22:17 12.7 °C 10.7 °C 1016.8 hPa Calm     88 % 0.3 mm 0.0 W/m2 CLR
22:22 12.7 °C 10.9 °C 1017.2 hPa Calm     89 % 0.3 mm 0.0 W/m2 CLR
22:27 12.9 °C 11.3 °C 1017.8 hPa WNW 16.7 km/h 16.7 km/h 90 % 0.3 mm 0.0 W/m2 CLR
22:32 13.4 °C 11.9 °C 1018.2 hPa WSW 32.2 km/h 32.2 km/h 91 % 0.5 mm 0.0 W/m2 RA
22:37 13.2 °C 11.2 °C 1018.2 hPa West 22.2 km/h 22.2 km/h 88 % 2.0 mm 0.0 W/m2 RA
22:42 12.9 °C 10.8 °C 1017.8 hPa Calm     87 % 2.3 mm 0.0 W/m2 RA
22:47 12.7 °C 10.4 °C 1017.8 hPa Calm     86 % 2.3 mm 0.0 W/m2 CLR
22:52 12.7 °C 9.7 °C 1017.5 hPa Calm     82 % 2.0 mm 0.0 W/m2 CLR
22:57 12.7 °C 9.8 °C 1017.8 hPa Calm     83 % 2.0 mm 0.0 W/m2 CLR
23:02 12.3 °C 9.5 °C 1017.8 hPa Calm     83 % 2.0 mm 0.0 W/m2 CLR
23:07 12.2 °C 9.8 °C 1017.8 hPa Calm     85 % 2.0 mm 0.0 W/m2 CLR
23:12 12.5 °C 10.7 °C 1018.2 hPa NW 24.1 km/h 24.1 km/h 89 % 2.0 mm 0.0 W/m2 CLR
23:17 12.7 °C 11.1 °C 1018.2 hPa NNW 13.0 km/h 13.0 km/h 90 % 2.0 mm 0.0 W/m2 CLR
23:22 12.6 °C 11.0 °C 1017.8 hPa Calm     90 % 2.0 mm 0.0 W/m2 CLR
23:27 12.6 °C 10.9 °C 1018.2 hPa Calm     90 % 2.0 mm 0.0 W/m2 CLR
23:32 12.1 °C 10.3 °C 1018.2 hPa Calm     89 % 1.8 mm 0.0 W/m2 CLR
23:37 11.9 °C 10.3 °C 1017.8 hPa Calm     90 % 0.3 mm 0.0 W/m2 CLR
23:42 11.8 °C 10.2 °C 1017.8 hPa Calm     90 % 0.0 mm 0.0 W/m2 CLR
23:47 11.8 °C 10.3 °C 1017.5 hPa Calm     91 % 0.0 mm 0.0 W/m2 CLR
23:52 11.7 °C 10.2 °C 1017.8 hPa Calm     91 % 0.0 mm 0.0 W/m2 CLR
23:57 11.7 °C 10.3 °C 1017.8 hPa Calm     91 % 0.0 mm 0.0 W/m2 CLR
Lo Temps de Massalio
Compliments of Weather Underground - 1.25 mb